createdAt,value
2018-03-02T00:00:36.182Z,-6.30
2018-03-02T00:01:39.591Z,-6.33
2018-03-02T00:02:43.087Z,-6.37
2018-03-02T00:03:46.554Z,-6.40
2018-03-02T00:04:50.078Z,-6.47
2018-03-02T00:05:53.581Z,-6.38
2018-03-02T00:06:57.463Z,-6.46
2018-03-02T00:08:00.876Z,-6.45
2018-03-02T00:09:04.470Z,-6.48
2018-03-02T00:10:07.969Z,-6.50
2018-03-02T00:11:11.386Z,-6.51
2018-03-02T00:12:14.850Z,-6.53
2018-03-02T00:13:18.435Z,-6.46
2018-03-02T00:14:21.889Z,-6.48
2018-03-02T00:15:25.322Z,-6.37
2018-03-02T00:16:28.734Z,-6.29
2018-03-02T00:17:33.055Z,-6.46
2018-03-02T00:18:37.036Z,-6.53
2018-03-02T00:19:40.544Z,-6.43
2018-03-02T00:20:44.091Z,-6.46
2018-03-02T00:21:47.532Z,-6.53
2018-03-02T00:22:51.004Z,-6.53
2018-03-02T00:23:54.571Z,-6.57
2018-03-02T00:24:58.052Z,-6.58
2018-03-02T00:26:01.750Z,-6.60
2018-03-02T00:27:05.169Z,-6.62
2018-03-02T00:28:08.718Z,-6.60
2018-03-02T00:29:12.251Z,-6.59
2018-03-02T00:30:16.246Z,-6.60
2018-03-02T00:31:19.702Z,-6.65
2018-03-02T00:32:23.193Z,-6.63
2018-03-02T00:33:26.821Z,-6.59
2018-03-02T00:34:30.311Z,-6.56
2018-03-02T00:35:33.846Z,-6.65
2018-03-02T00:36:37.723Z,-6.67
2018-03-02T00:37:41.234Z,-6.70
2018-03-02T00:38:44.809Z,-6.62
2018-03-02T00:39:48.294Z,-6.62
2018-03-02T00:40:51.718Z,-6.61
2018-03-02T00:41:55.346Z,-6.54
2018-03-02T00:42:59.477Z,-6.57
2018-03-02T00:44:03.203Z,-6.62
2018-03-02T00:45:07.976Z,-6.67
2018-03-02T00:46:11.708Z,-6.52
2018-03-02T00:47:15.322Z,-6.50
2018-03-02T00:48:18.850Z,-6.58
2018-03-02T00:49:22.760Z,-6.63
2018-03-02T00:50:26.303Z,-6.64
2018-03-02T00:51:29.965Z,-6.60
2018-03-02T00:52:33.674Z,-6.61
2018-03-02T00:53:37.223Z,-6.67
2018-03-02T00:54:40.769Z,-6.62
2018-03-02T00:55:44.760Z,-6.65
2018-03-02T00:56:48.309Z,-6.70
2018-03-02T00:57:52.009Z,-6.71
2018-03-02T00:58:55.742Z,-6.68
2018-03-02T00:59:59.396Z,-6.70
2018-03-02T01:01:02.885Z,-6.72
2018-03-02T01:02:07.171Z,-6.75
2018-03-02T01:03:10.767Z,-6.76
2018-03-02T01:04:14.326Z,-6.74
2018-03-02T01:05:17.713Z,-6.72
2018-03-02T01:06:21.159Z,-6.74
2018-03-02T01:07:24.605Z,-6.70
2018-03-02T01:08:28.416Z,-6.75
2018-03-02T01:09:32.237Z,-6.78
2018-03-02T01:10:35.817Z,-6.84
2018-03-02T01:11:39.542Z,-6.77
2018-03-02T01:12:43.057Z,-6.76
2018-03-02T01:13:46.594Z,-6.82
2018-03-02T01:14:51.571Z,-6.81
2018-03-02T01:15:55.303Z,-6.71
2018-03-02T01:16:58.894Z,-6.77
2018-03-02T01:18:02.722Z,-6.81
2018-03-02T01:19:06.323Z,-6.81
2018-03-02T01:20:10.346Z,-6.80
2018-03-02T01:21:14.809Z,-6.82
2018-03-02T01:22:18.486Z,-6.86
2018-03-02T01:23:22.089Z,-6.83
2018-03-02T01:24:25.848Z,-6.85
2018-03-02T01:25:29.373Z,-6.83
2018-03-02T01:26:33.076Z,-6.82
2018-03-02T01:27:37.212Z,-6.88
2018-03-02T01:28:41.025Z,-6.84
2018-03-02T01:29:44.589Z,-6.80
2018-03-02T01:30:48.230Z,-6.86
2018-03-02T01:31:51.933Z,-6.87
2018-03-02T01:32:55.695Z,-6.85
2018-03-02T01:34:00.017Z,-6.84
2018-03-02T01:35:03.583Z,-6.89
2018-03-02T01:36:07.397Z,-6.87
2018-03-02T01:37:11.222Z,-6.84
2018-03-02T01:38:15.004Z,-6.86
2018-03-02T01:39:18.541Z,-6.80
2018-03-02T01:40:22.641Z,-6.78
2018-03-02T01:41:26.573Z,-6.82
2018-03-02T01:42:30.060Z,-6.84
2018-03-02T01:43:33.767Z,-6.85
2018-03-02T01:44:37.596Z,-6.88
2018-03-02T01:45:41.234Z,-6.87
2018-03-02T01:46:45.276Z,-6.88
2018-03-02T01:47:49.044Z,-6.85
2018-03-02T01:48:52.559Z,-6.76
2018-03-02T01:49:56.343Z,-6.74
2018-03-02T01:50:59.995Z,-6.82
2018-03-02T01:52:03.685Z,-6.86
2018-03-02T01:53:07.638Z,-6.87
2018-03-02T01:54:11.383Z,-6.89
2018-03-02T01:55:15.161Z,-6.89
2018-03-02T01:56:18.760Z,-6.86
2018-03-02T01:57:22.567Z,-6.85
2018-03-02T01:58:26.487Z,-6.86
2018-03-02T01:59:30.552Z,-6.84
2018-03-02T02:00:34.306Z,-6.83
2018-03-02T02:01:37.752Z,-6.85
2018-03-02T02:02:41.488Z,-6.86
2018-03-02T02:03:45.061Z,-6.85
2018-03-02T02:04:48.652Z,-6.85
2018-03-02T02:05:52.834Z,-6.89
2018-03-02T02:06:56.590Z,-6.87
2018-03-02T02:08:00.085Z,-6.84
2018-03-02T02:09:03.765Z,-6.85
2018-03-02T02:10:07.480Z,-6.89
2018-03-02T02:11:11.334Z,-6.94
2018-03-02T02:12:15.222Z,-6.95
2018-03-02T02:13:18.757Z,-6.92
2018-03-02T02:14:22.312Z,-6.91
2018-03-02T02:15:26.023Z,-6.93
2018-03-02T02:16:29.574Z,-6.95
2018-03-02T02:17:33.229Z,-6.94
2018-03-02T02:18:37.321Z,-6.94
2018-03-02T02:19:41.177Z,-6.92
2018-03-02T02:20:44.649Z,-6.96
2018-03-02T02:21:48.207Z,-6.90
2018-03-02T02:22:51.885Z,-6.93
2018-03-02T02:23:55.505Z,-6.97
2018-03-02T02:24:59.578Z,-6.93
2018-03-02T02:26:03.276Z,-6.95
2018-03-02T02:27:06.792Z,-6.90
2018-03-02T02:28:10.273Z,-6.91
2018-03-02T02:29:13.796Z,-6.95
2018-03-02T02:30:17.373Z,-6.89
2018-03-02T02:31:21.553Z,-6.96
2018-03-02T02:32:25.106Z,-6.96
2018-03-02T02:33:28.551Z,-6.93
2018-03-02T02:34:32.383Z,-6.93
2018-03-02T02:35:35.607Z,-6.92
2018-03-02T02:36:39.580Z,-6.97
2018-03-02T02:37:43.420Z,-6.97
2018-03-02T02:38:47.023Z,-6.89
2018-03-02T02:39:50.435Z,-6.89
2018-03-02T02:40:53.911Z,-6.94
2018-03-02T02:41:57.285Z,-6.96
2018-03-02T02:43:00.770Z,-7.00
2018-03-02T02:44:04.202Z,-7.03
2018-03-02T02:45:07.973Z,-7.00
2018-03-02T02:46:11.495Z,-7.01
2018-03-02T02:47:15.161Z,-7.00
2018-03-02T02:48:18.873Z,-7.01
2018-03-02T02:49:22.230Z,-7.02
2018-03-02T02:50:25.833Z,-6.95
2018-03-02T02:51:29.481Z,-7.05
2018-03-02T02:52:32.930Z,-7.06
2018-03-02T02:53:36.331Z,-7.07
2018-03-02T02:54:39.844Z,-7.07
2018-03-02T02:55:43.186Z,-7.05
2018-03-02T02:56:46.687Z,-6.97
2018-03-02T02:57:50.667Z,-6.94
2018-03-02T02:58:53.779Z,-6.99
2018-03-02T02:59:57.421Z,-7.01
2018-03-02T03:01:00.623Z,-7.00
2018-03-02T03:02:04.269Z,-6.95
2018-03-02T03:03:07.863Z,-7.06
2018-03-02T03:04:11.530Z,-7.05
2018-03-02T03:05:15.146Z,-7.09
2018-03-02T03:06:19.053Z,-7.07
2018-03-02T03:07:22.566Z,-7.07
2018-03-02T03:08:25.847Z,-7.01
2018-03-02T03:09:29.477Z,-6.90
2018-03-02T03:10:33.490Z,-6.95
2018-03-02T03:11:37.089Z,-6.98
2018-03-02T03:12:40.542Z,-7.05
2018-03-02T03:13:43.952Z,-7.08
2018-03-02T03:14:47.326Z,-7.05
2018-03-02T03:15:50.505Z,-7.10
2018-03-02T03:16:54.251Z,-7.15
2018-03-02T03:17:57.774Z,-7.12
2018-03-02T03:19:01.189Z,-7.14
2018-03-02T03:20:04.367Z,-7.06
2018-03-02T03:21:07.626Z,-7.01
2018-03-02T03:22:10.911Z,-7.00
2018-03-02T03:23:15.912Z,-7.01
2018-03-02T03:24:19.111Z,-7.10
2018-03-02T03:25:22.532Z,-7.08
2018-03-02T03:26:25.973Z,-7.11
2018-03-02T03:27:29.568Z,-7.09
2018-03-02T03:28:33.258Z,-7.10
2018-03-02T03:29:36.686Z,-7.14
2018-03-02T03:30:40.330Z,-7.07
2018-03-02T03:31:43.712Z,-7.10
2018-03-02T03:32:47.242Z,-7.12
2018-03-02T03:33:50.477Z,-7.07
2018-03-02T03:34:53.801Z,-7.04
2018-03-02T03:35:57.393Z,-7.08
2018-03-02T03:37:00.557Z,-7.08
2018-03-02T03:38:04.167Z,-7.18
2018-03-02T03:39:07.510Z,-7.17
2018-03-02T03:40:11.139Z,-7.15
2018-03-02T03:41:14.546Z,-7.01
2018-03-02T03:42:18.179Z,-7.10
2018-03-02T03:43:21.598Z,-7.12
2018-03-02T03:44:25.113Z,-7.10
2018-03-02T03:45:28.535Z,-7.15
2018-03-02T03:46:31.890Z,-7.15
2018-03-02T03:47:35.070Z,-7.18
2018-03-02T03:48:38.746Z,-7.17
2018-03-02T03:49:42.009Z,-7.12
2018-03-02T03:50:45.271Z,-7.11
2018-03-02T03:51:48.676Z,-7.10
2018-03-02T03:52:51.770Z,-7.07
2018-03-02T03:53:55.008Z,-7.11
2018-03-02T03:54:58.688Z,-7.20
2018-03-02T03:56:01.857Z,-7.16
2018-03-02T03:57:05.026Z,-7.12
2018-03-02T03:58:08.288Z,-7.18
2018-03-02T03:59:11.506Z,-7.20
2018-03-02T04:00:14.792Z,-7.16
2018-03-02T04:01:18.772Z,-7.24
2018-03-02T04:02:22.320Z,-7.21
2018-03-02T04:03:25.731Z,-7.18
2018-03-02T04:04:29.329Z,-7.19
2018-03-02T04:05:32.776Z,-7.21
2018-03-02T04:06:36.101Z,-7.22
2018-03-02T04:07:39.759Z,-7.14
2018-03-02T04:08:43.089Z,-7.10
2018-03-02T04:09:46.208Z,-7.12
2018-03-02T04:10:49.840Z,-7.15
2018-03-02T04:11:53.028Z,-7.15
2018-03-02T04:12:56.413Z,-7.19
2018-03-02T04:14:00.042Z,-7.20
2018-03-02T04:15:03.232Z,-7.21
2018-03-02T04:16:06.465Z,-7.20
2018-03-02T04:17:09.787Z,-7.20
2018-03-02T04:18:13.151Z,-7.21
2018-03-02T04:19:16.463Z,-7.23
2018-03-02T04:20:20.217Z,-7.23
2018-03-02T04:21:23.785Z,-7.24
2018-03-02T04:22:28.071Z,-7.23
2018-03-02T04:23:31.762Z,-7.21
2018-03-02T04:24:35.374Z,-7.24
2018-03-02T04:25:38.517Z,-7.25
2018-03-02T04:26:42.124Z,-7.24
2018-03-02T04:27:45.516Z,-7.23
2018-03-02T04:28:48.750Z,-7.15
2018-03-02T04:29:51.888Z,-7.20
2018-03-02T04:30:55.118Z,-7.25
2018-03-02T04:31:58.578Z,-7.19
2018-03-02T04:33:02.765Z,-7.18
2018-03-02T04:34:06.245Z,-7.21
2018-03-02T04:35:09.597Z,-7.18
2018-03-02T04:36:13.032Z,-7.22
2018-03-02T04:37:16.355Z,-7.21
2018-03-02T04:38:19.728Z,-7.24
2018-03-02T04:39:23.335Z,-7.24
2018-03-02T04:40:26.709Z,-7.28
2018-03-02T04:41:30.232Z,-7.26
2018-03-02T04:42:33.354Z,-7.29
2018-03-02T04:43:36.643Z,-7.30
2018-03-02T04:44:40.464Z,-7.29
2018-03-02T04:45:43.677Z,-7.21
2018-03-02T04:46:47.201Z,-7.16
2018-03-02T04:47:50.461Z,-7.18
2018-03-02T04:48:53.881Z,-7.27
2018-03-02T04:49:56.968Z,-7.26
2018-03-02T04:51:00.708Z,-7.25
2018-03-02T04:52:03.790Z,-7.08
2018-03-02T04:53:07.254Z,-7.18
2018-03-02T04:54:10.784Z,-7.16
2018-03-02T04:55:14.337Z,-7.19
2018-03-02T04:56:18.042Z,-7.18
2018-03-02T04:57:21.477Z,-7.18
2018-03-02T04:58:25.090Z,-7.14
2018-03-02T04:59:28.309Z,-7.08
2018-03-02T05:00:32.853Z,-7.08
2018-03-02T05:01:36.408Z,-7.20
2018-03-02T05:02:39.595Z,-7.22
2018-03-02T05:03:43.697Z,-7.18
2018-03-02T05:04:47.081Z,-7.15
2018-03-02T05:05:50.661Z,-7.18
2018-03-02T05:06:54.348Z,-7.15
2018-03-02T05:07:57.996Z,-7.23
2018-03-02T05:09:01.346Z,-7.14
2018-03-02T05:10:04.951Z,-7.19
2018-03-02T05:11:08.411Z,-7.08
2018-03-02T05:12:11.810Z,-7.10
2018-03-02T05:13:15.495Z,-7.08
2018-03-02T05:14:19.009Z,-7.11
2018-03-02T05:15:23.017Z,-7.19
2018-03-02T05:16:26.557Z,-7.15
2018-03-02T05:17:30.046Z,-7.11
2018-03-02T05:18:33.652Z,-7.12
2018-03-02T05:19:37.199Z,-7.13
2018-03-02T05:20:40.675Z,-7.14
2018-03-02T05:21:44.355Z,-7.13
2018-03-02T05:22:47.719Z,-7.22
2018-03-02T05:23:52.423Z,-7.24
2018-03-02T05:24:56.166Z,-7.26
2018-03-02T05:25:59.769Z,-7.27
2018-03-02T05:27:03.151Z,-7.21
2018-03-02T05:28:07.086Z,-7.17
2018-03-02T05:29:10.358Z,-7.22
2018-03-02T05:30:13.966Z,-7.25
2018-03-02T05:31:17.485Z,-7.22
2018-03-02T05:32:21.030Z,-7.14
2018-03-02T05:33:24.411Z,-7.19
2018-03-02T05:34:28.462Z,-7.19
2018-03-02T05:35:32.117Z,-7.10
2018-03-02T05:36:35.742Z,-7.07
2018-03-02T05:37:39.276Z,-7.23
2018-03-02T05:38:42.926Z,-7.16
2018-03-02T05:39:46.429Z,-7.14
2018-03-02T05:40:50.451Z,-7.21
2018-03-02T05:41:54.000Z,-7.22
2018-03-02T05:42:57.987Z,-7.09
2018-03-02T05:44:01.724Z,-7.14
2018-03-02T05:45:05.357Z,-7.14
2018-03-02T05:46:08.826Z,-7.06
2018-03-02T05:47:12.746Z,-7.13
2018-03-02T05:48:16.630Z,-7.14
2018-03-02T05:49:20.118Z,-7.03
2018-03-02T05:50:23.720Z,-7.01
2018-03-02T05:51:27.342Z,-6.96
2018-03-02T05:52:30.886Z,-6.98
2018-03-02T05:53:35.074Z,-7.04
2018-03-02T05:54:38.665Z,-7.11
2018-03-02T05:55:42.406Z,-7.09
2018-03-02T05:56:45.899Z,-7.12
2018-03-02T05:57:49.655Z,-7.14
2018-03-02T05:58:53.427Z,-7.06
2018-03-02T05:59:57.445Z,-7.01
2018-03-02T06:01:01.054Z,-7.04
2018-03-02T06:02:04.407Z,-7.06
2018-03-02T06:03:08.000Z,-7.08
2018-03-02T06:04:11.623Z,-7.02
2018-03-02T06:05:15.180Z,-6.98
2018-03-02T06:06:18.785Z,-7.02
2018-03-02T06:07:22.464Z,-7.05
2018-03-02T06:08:26.162Z,-7.00
2018-03-02T06:09:29.782Z,-7.03
2018-03-02T06:10:33.627Z,-7.10
2018-03-02T06:11:37.917Z,-7.14
2018-03-02T06:12:41.413Z,-7.12
2018-03-02T06:13:45.082Z,-7.15
2018-03-02T06:14:48.587Z,-7.12
2018-03-02T06:15:52.214Z,-7.06
2018-03-02T06:16:55.857Z,-7.07
2018-03-02T06:17:59.942Z,-7.02
2018-03-02T06:19:03.679Z,-7.05
2018-03-02T06:20:07.238Z,-7.04
2018-03-02T06:21:10.968Z,-7.08
2018-03-02T06:22:14.540Z,-7.10
2018-03-02T06:23:18.240Z,-7.06
2018-03-02T06:24:22.262Z,-7.01
2018-03-02T06:25:25.816Z,-7.03
2018-03-02T06:26:29.369Z,-7.05
2018-03-02T06:27:32.859Z,-7.00
2018-03-02T06:28:36.303Z,-6.97
2018-03-02T06:29:40.382Z,-6.99
2018-03-02T06:30:44.342Z,-7.05
2018-03-02T06:31:48.034Z,-7.02
2018-03-02T06:32:51.507Z,-7.04
2018-03-02T06:33:54.991Z,-7.11
2018-03-02T06:34:58.546Z,-6.99
2018-03-02T06:36:02.406Z,-6.91
2018-03-02T06:37:06.267Z,-6.90
2018-03-02T06:38:09.686Z,-6.96
2018-03-02T06:39:13.467Z,-7.05
2018-03-02T06:40:17.427Z,-7.07
2018-03-02T06:41:21.107Z,-7.05
2018-03-02T06:42:24.681Z,-7.09
2018-03-02T06:43:28.650Z,-7.09
2018-03-02T06:44:31.994Z,-7.05
2018-03-02T06:45:35.751Z,-7.06
2018-03-02T06:46:39.386Z,-7.02
2018-03-02T06:47:43.093Z,-7.05
2018-03-02T06:48:47.924Z,-7.08
2018-03-02T06:49:51.733Z,-7.07
2018-03-02T06:50:55.365Z,-6.98
2018-03-02T06:51:59.035Z,-7.00
2018-03-02T06:53:02.856Z,-7.05
2018-03-02T06:54:06.526Z,-7.00
2018-03-02T06:55:10.347Z,-7.01
2018-03-02T06:56:14.121Z,-7.02
2018-03-02T06:57:17.639Z,-6.98
2018-03-02T06:58:21.416Z,-6.93
2018-03-02T06:59:25.331Z,-6.89
2018-03-02T07:00:29.164Z,-6.82
2018-03-02T07:01:32.796Z,-6.91
2018-03-02T07:02:36.724Z,-6.90
2018-03-02T07:03:40.195Z,-6.80
2018-03-02T07:04:43.880Z,-6.73
2018-03-02T07:05:47.424Z,-6.70
2018-03-02T07:06:50.950Z,-6.67
2018-03-02T07:07:54.712Z,-6.82
2018-03-02T07:08:58.673Z,-6.76
2018-03-02T07:10:02.089Z,-6.73
2018-03-02T07:11:05.655Z,-6.74
2018-03-02T07:12:09.412Z,-6.69
2018-03-02T07:13:13.069Z,-6.69
2018-03-02T07:14:16.646Z,-6.67
2018-03-02T07:15:21.416Z,-6.68
2018-03-02T07:16:25.034Z,-6.66
2018-03-02T07:17:29.242Z,-6.64
2018-03-02T07:18:32.933Z,-6.67
2018-03-02T07:19:36.245Z,-6.53
2018-03-02T07:20:39.738Z,-6.48
2018-03-02T07:21:43.725Z,-6.54
2018-03-02T07:22:47.355Z,-6.47
2018-03-02T07:23:50.803Z,-6.43
2018-03-02T07:24:54.389Z,-6.50
2018-03-02T07:25:58.100Z,-6.66
2018-03-02T07:27:01.709Z,-6.68
2018-03-02T07:28:05.694Z,-6.58
2018-03-02T07:29:09.267Z,-6.54
2018-03-02T07:30:12.701Z,-6.65
2018-03-02T07:31:16.231Z,-6.48
2018-03-02T07:32:19.798Z,-6.51
2018-03-02T07:33:23.423Z,-6.46
2018-03-02T07:34:27.786Z,-6.51
2018-03-02T07:35:31.155Z,-6.51
2018-03-02T07:36:34.697Z,-6.56
2018-03-02T07:37:38.274Z,-6.55
2018-03-02T07:38:41.986Z,-6.64
2018-03-02T07:39:45.565Z,-6.60
2018-03-02T07:40:49.486Z,-6.58
2018-03-02T07:41:53.264Z,-6.41
2018-03-02T07:42:56.993Z,-6.48
2018-03-02T07:44:00.438Z,-6.34
2018-03-02T07:45:04.067Z,-6.54
2018-03-02T07:46:07.593Z,-6.42
2018-03-02T07:47:11.471Z,-6.40
2018-03-02T07:48:15.026Z,-6.37
2018-03-02T07:49:18.575Z,-6.27
2018-03-02T07:50:22.251Z,-6.04
2018-03-02T07:51:25.733Z,-6.09
2018-03-02T07:52:29.106Z,-6.03
2018-03-02T07:53:33.042Z,-6.04
2018-03-02T07:54:37.099Z,-5.82
2018-03-02T07:55:40.441Z,-5.92
2018-03-02T07:56:43.999Z,-6.07
2018-03-02T07:57:48.193Z,-6.10
2018-03-02T07:58:51.717Z,-5.93
2018-03-02T07:59:55.200Z,-5.83
2018-03-02T08:00:58.676Z,-5.68
2018-03-02T08:02:02.077Z,-5.66
2018-03-02T08:03:05.565Z,-5.56
2018-03-02T08:04:09.086Z,-5.24
2018-03-02T08:05:12.838Z,-5.27
2018-03-02T08:06:17.036Z,-4.99
2018-03-02T08:07:20.429Z,-4.96
2018-03-02T08:08:23.870Z,-4.83
2018-03-02T08:09:27.365Z,-4.63
2018-03-02T08:10:30.813Z,-4.00
2018-03-02T08:11:34.664Z,-4.35
2018-03-02T08:12:38.269Z,-4.64
2018-03-02T08:13:41.716Z,-4.46
2018-03-02T08:14:45.110Z,-4.49
2018-03-02T08:15:48.578Z,-4.42
2018-03-02T08:16:52.163Z,-4.59
2018-03-02T08:17:55.964Z,-4.73
2018-03-02T08:18:59.376Z,-4.85
2018-03-02T08:20:03.015Z,-4.94
2018-03-02T08:21:06.513Z,-4.68
2018-03-02T08:22:09.811Z,-4.47
2018-03-02T08:23:13.239Z,-4.08
2018-03-02T08:24:17.030Z,-4.06
2018-03-02T08:25:20.476Z,-4.16
2018-03-02T08:26:23.883Z,-4.21
2018-03-02T08:27:27.160Z,-3.53
2018-03-02T08:28:30.567Z,-3.36
2018-03-02T08:29:33.974Z,-3.06
2018-03-02T08:30:38.924Z,-2.90
2018-03-02T08:31:43.215Z,-3.44
2018-03-02T08:32:46.628Z,-3.34
2018-03-02T08:33:50.041Z,-2.94
2018-03-02T08:34:53.577Z,-2.74
2018-03-02T08:35:57.087Z,-2.45
2018-03-02T08:37:00.871Z,-2.93
2018-03-02T08:38:04.316Z,-2.90
2018-03-02T08:39:07.675Z,-3.17
2018-03-02T08:40:11.132Z,-2.95
2018-03-02T08:41:14.705Z,-2.63
2018-03-02T08:42:18.339Z,-2.28
2018-03-02T08:43:22.326Z,-2.17
2018-03-02T08:44:25.733Z,-2.25
2018-03-02T08:45:29.130Z,-2.69
2018-03-02T08:46:32.550Z,-2.79
2018-03-02T08:47:35.987Z,-3.00
2018-03-02T08:48:39.353Z,-3.13
2018-03-02T08:49:43.346Z,-3.16
2018-03-02T08:50:46.813Z,-3.22
2018-03-02T08:51:50.139Z,-3.41
2018-03-02T08:52:53.484Z,-3.35
2018-03-02T08:53:57.031Z,-3.86
2018-03-02T08:55:00.501Z,-3.92
2018-03-02T08:56:04.484Z,-3.76
2018-03-02T08:57:07.985Z,-3.24
2018-03-02T08:58:11.509Z,-3.57
2018-03-02T08:59:14.796Z,-4.03
2018-03-02T09:00:18.281Z,-4.30
2018-03-02T09:01:21.629Z,-4.01
2018-03-02T09:02:25.217Z,-4.05
2018-03-02T09:03:28.740Z,-4.33
2018-03-02T09:04:32.187Z,-4.23
2018-03-02T09:05:35.747Z,-4.33
2018-03-02T09:06:39.107Z,-4.50
2018-03-02T09:07:42.571Z,-4.59
2018-03-02T09:08:46.460Z,-4.45
2018-03-02T09:09:49.908Z,-4.41
2018-03-02T09:10:53.377Z,-4.45
2018-03-02T09:11:56.765Z,-4.04
2018-03-02T09:13:00.200Z,-3.80
2018-03-02T09:14:03.594Z,-4.24
2018-03-02T09:15:07.798Z,-4.68
2018-03-02T09:16:11.306Z,-4.69
2018-03-02T09:17:14.806Z,-4.39
2018-03-02T09:18:18.207Z,-4.15
2018-03-02T09:19:21.477Z,-4.12
2018-03-02T09:20:24.905Z,-4.47
2018-03-02T09:21:28.670Z,-4.38
2018-03-02T09:22:32.128Z,-4.34
2018-03-02T09:23:35.438Z,-4.28
2018-03-02T09:24:38.807Z,-4.25
2018-03-02T09:25:42.195Z,-4.14
2018-03-02T09:26:45.601Z,-4.33
2018-03-02T09:27:49.413Z,-4.16
2018-03-02T09:28:52.850Z,-3.98
2018-03-02T09:29:56.174Z,-3.91
2018-03-02T09:30:59.550Z,-3.90
2018-03-02T09:32:02.895Z,-3.87
2018-03-02T09:33:06.245Z,-4.01
2018-03-02T09:34:10.084Z,-4.09
2018-03-02T09:35:13.360Z,-4.01
2018-03-02T09:36:16.769Z,-3.95
2018-03-02T09:37:20.212Z,-3.81
2018-03-02T09:38:23.660Z,-3.78
2018-03-02T09:39:27.094Z,-3.82
2018-03-02T09:40:30.768Z,-3.77
2018-03-02T09:41:34.117Z,-3.69
2018-03-02T09:42:37.627Z,-3.71
2018-03-02T09:43:41.100Z,-3.43
2018-03-02T09:44:44.575Z,-3.50
2018-03-02T09:45:48.066Z,-3.57
2018-03-02T09:46:51.465Z,-3.44
2018-03-02T09:47:54.964Z,-3.54
2018-03-02T09:48:58.546Z,-3.62
2018-03-02T09:50:01.889Z,-3.56
2018-03-02T09:51:05.264Z,-3.52
2018-03-02T09:52:08.938Z,-3.59
2018-03-02T09:53:12.351Z,-3.51
2018-03-02T09:54:15.782Z,-3.53
2018-03-02T09:55:19.173Z,-3.31
2018-03-02T09:56:22.566Z,-3.11
2018-03-02T09:57:26.163Z,-2.88
2018-03-02T09:58:29.813Z,-2.74
2018-03-02T09:59:33.123Z,-2.74
2018-03-02T10:00:36.480Z,-2.95
2018-03-02T10:01:39.827Z,-2.80
2018-03-02T10:02:43.163Z,-3.03
2018-03-02T10:03:46.407Z,-3.07
2018-03-02T10:04:50.204Z,-2.91
2018-03-02T10:05:53.493Z,-3.03
2018-03-02T10:06:56.857Z,-3.16
2018-03-02T10:08:00.214Z,-3.19
2018-03-02T10:09:03.682Z,-3.28
2018-03-02T10:10:06.991Z,-3.07
2018-03-02T10:11:10.644Z,-2.52
2018-03-02T10:12:13.977Z,-1.78
2018-03-02T10:13:17.438Z,-1.65
2018-03-02T10:14:21.288Z,-1.31
2018-03-02T10:15:24.605Z,-1.31
2018-03-02T10:16:28.076Z,-1.47
2018-03-02T10:17:31.738Z,-1.95
2018-03-02T10:18:35.172Z,-2.50
2018-03-02T10:19:38.594Z,-2.02
2018-03-02T10:20:41.880Z,-1.62
2018-03-02T10:21:45.226Z,-1.33
2018-03-02T10:22:48.553Z,-0.88
2018-03-02T10:23:52.496Z,-0.74
2018-03-02T10:24:55.811Z,-1.89
2018-03-02T10:25:59.140Z,-2.34
2018-03-02T10:27:02.564Z,-2.11
2018-03-02T10:28:06.027Z,-2.14
2018-03-02T10:29:09.495Z,-1.53
2018-03-02T10:30:13.263Z,-1.43
2018-03-02T10:31:16.715Z,-0.77
2018-03-02T10:32:20.077Z,-0.43
2018-03-02T10:33:23.497Z,-0.05
2018-03-02T10:34:26.832Z,-0.28
2018-03-02T10:35:30.174Z,-1.76
2018-03-02T10:36:34.434Z,-2.22
2018-03-02T10:37:37.884Z,-2.64
2018-03-02T10:38:41.242Z,-2.51
2018-03-02T10:39:44.456Z,-2.46
2018-03-02T10:40:47.769Z,-2.00
2018-03-02T10:41:51.161Z,-1.70
2018-03-02T10:42:54.932Z,-1.53
2018-03-02T10:43:58.291Z,-1.62
2018-03-02T10:45:01.739Z,-1.71
2018-03-02T10:46:07.750Z,-1.72
2018-03-02T10:47:11.177Z,-2.08
2018-03-02T10:48:14.618Z,-2.26
2018-03-02T10:49:18.328Z,-1.92
2018-03-02T10:50:21.667Z,-1.74
2018-03-02T10:51:25.072Z,-1.97
2018-03-02T10:52:28.322Z,-2.38
2018-03-02T10:53:31.663Z,-2.12
2018-03-02T10:54:34.948Z,-1.98
2018-03-02T10:55:38.334Z,-1.86
2018-03-02T10:56:41.952Z,-2.07
2018-03-02T10:57:45.195Z,-2.30
2018-03-02T10:58:48.545Z,-1.78
2018-03-02T10:59:51.972Z,-1.74
2018-03-02T11:00:56.039Z,-1.23
2018-03-02T11:02:03.195Z,-1.05
2018-03-02T11:03:07.582Z,-1.16
2018-03-02T11:04:12.732Z,-1.87
2018-03-02T11:05:19.125Z,-2.47
2018-03-02T11:06:22.923Z,-2.05
2018-03-02T11:07:26.271Z,-2.14
2018-03-02T11:08:29.598Z,-2.44
2018-03-02T11:09:33.002Z,-2.40
2018-03-02T11:10:36.392Z,-2.36
2018-03-02T11:11:39.731Z,-2.40
2018-03-02T11:12:43.748Z,-2.37
2018-03-02T11:13:47.033Z,-2.35
2018-03-02T11:14:50.438Z,-1.98
2018-03-02T11:15:53.793Z,-1.76
2018-03-02T11:16:57.279Z,-1.66
2018-03-02T11:18:00.760Z,-1.59
2018-03-02T11:19:04.542Z,-1.41
2018-03-02T11:20:07.984Z,-1.31
2018-03-02T11:21:11.377Z,-1.44
2018-03-02T11:22:14.742Z,-1.16
2018-03-02T11:23:18.101Z,-1.39
2018-03-02T11:24:21.391Z,-1.76
2018-03-02T11:25:25.222Z,-1.76
2018-03-02T11:26:28.652Z,-1.92
2018-03-02T11:27:32.015Z,-2.17
2018-03-02T11:28:35.411Z,-2.11
2018-03-02T11:29:38.815Z,-1.95
2018-03-02T11:30:42.144Z,-1.63
2018-03-02T11:31:46.355Z,-1.46
2018-03-02T11:32:49.663Z,-1.30
2018-03-02T11:33:53.019Z,-1.28
2018-03-02T11:34:56.397Z,-1.37
2018-03-02T11:35:59.779Z,-1.33
2018-03-02T11:37:03.209Z,-1.35
2018-03-02T11:38:07.029Z,-1.27
2018-03-02T11:39:10.426Z,-1.33
2018-03-02T11:40:13.782Z,-1.09
2018-03-02T11:41:17.984Z,-1.19
2018-03-02T11:42:21.331Z,-1.52
2018-03-02T11:43:24.738Z,-1.16
2018-03-02T11:44:28.429Z,-0.91
2018-03-02T11:45:31.758Z,-1.16
2018-03-02T11:46:35.108Z,-0.97
2018-03-02T11:47:38.421Z,-0.58
2018-03-02T11:48:41.758Z,-0.22
2018-03-02T11:49:45.177Z,-0.43
2018-03-02T11:50:49.018Z,-0.90
2018-03-02T11:51:52.416Z,-1.00
2018-03-02T11:52:55.814Z,-0.74
2018-03-02T11:53:59.056Z,-0.24
2018-03-02T11:55:02.420Z,-0.18
2018-03-02T11:56:06.865Z,-0.02
2018-03-02T11:57:10.525Z,0.04
2018-03-02T11:58:13.850Z,-0.17
2018-03-02T11:59:17.093Z,-0.03
2018-03-02T12:00:20.399Z,0.39
2018-03-02T12:01:23.737Z,0.10
2018-03-02T12:02:27.041Z,-0.41
2018-03-02T12:03:30.857Z,-0.75
2018-03-02T12:04:34.263Z,-0.77
2018-03-02T12:05:37.694Z,-0.87
2018-03-02T12:06:40.994Z,-0.81
2018-03-02T12:07:44.989Z,-1.08
2018-03-02T12:08:48.406Z,-0.81
2018-03-02T12:09:51.987Z,-0.47
2018-03-02T12:10:55.262Z,-0.64
2018-03-02T12:11:58.560Z,-0.74
2018-03-02T12:13:01.804Z,-0.76
2018-03-02T12:14:06.044Z,-1.01
2018-03-02T12:15:09.404Z,-0.79
2018-03-02T12:16:12.991Z,-0.27
2018-03-02T12:17:16.297Z,-0.39
2018-03-02T12:18:19.624Z,-0.75
2018-03-02T12:19:22.779Z,-0.95
2018-03-02T12:20:26.006Z,-1.26
2018-03-02T12:21:29.259Z,-1.18
2018-03-02T12:22:32.918Z,-1.09
2018-03-02T12:23:36.243Z,-0.80
2018-03-02T12:24:39.488Z,-1.02
2018-03-02T12:25:42.860Z,-1.25
2018-03-02T12:26:46.300Z,-1.24
2018-03-02T12:27:49.651Z,-1.17
2018-03-02T12:28:53.257Z,-1.11
2018-03-02T12:29:56.701Z,-1.41
2018-03-02T12:31:00.074Z,-1.56
2018-03-02T12:32:03.798Z,-1.44
2018-03-02T12:33:07.100Z,-1.39
2018-03-02T12:34:10.435Z,-1.16
2018-03-02T12:35:13.989Z,-1.11
2018-03-02T12:36:17.714Z,-1.08
2018-03-02T12:37:20.947Z,-1.20
2018-03-02T12:38:24.228Z,-1.55
2018-03-02T12:39:28.380Z,-1.82
2018-03-02T12:40:31.974Z,-1.72
2018-03-02T12:41:35.654Z,-1.84
2018-03-02T12:42:38.878Z,-1.86
2018-03-02T12:43:42.310Z,-1.78
2018-03-02T12:44:45.854Z,-1.81
2018-03-02T12:45:49.073Z,-1.89
2018-03-02T12:46:52.215Z,-1.97
2018-03-02T12:47:55.488Z,-1.90
2018-03-02T12:48:58.718Z,-1.81
2018-03-02T12:50:02.104Z,-1.57
2018-03-02T12:51:05.367Z,-1.61
2018-03-02T12:52:08.622Z,-1.69
2018-03-02T12:53:11.879Z,-1.71
2018-03-02T12:54:15.114Z,-1.47
2018-03-02T12:55:18.417Z,-1.13
2018-03-02T12:56:21.581Z,-1.00
2018-03-02T12:57:25.136Z,-0.86
2018-03-02T12:58:28.431Z,-0.70
2018-03-02T12:59:31.773Z,-1.02
2018-03-02T13:00:35.571Z,-0.97
2018-03-02T13:01:38.918Z,-0.83
2018-03-02T13:02:42.192Z,-0.72
2018-03-02T13:03:45.859Z,-0.85
2018-03-02T13:04:49.087Z,-0.94
2018-03-02T13:05:52.378Z,-0.81
2018-03-02T13:06:56.725Z,-0.61
2018-03-02T13:07:59.945Z,-0.57
2018-03-02T13:09:03.183Z,-0.61
2018-03-02T13:10:06.988Z,-0.17
2018-03-02T13:11:10.104Z,-0.07
2018-03-02T13:12:13.379Z,-0.18
2018-03-02T13:13:16.657Z,0.04
2018-03-02T13:14:20.016Z,0.38
2018-03-02T13:15:23.289Z,0.50
2018-03-02T13:16:26.825Z,0.39
2018-03-02T13:17:30.106Z,0.63
2018-03-02T13:18:33.316Z,0.73
2018-03-02T13:19:36.653Z,0.82
2018-03-02T13:20:40.699Z,0.64
2018-03-02T13:21:43.857Z,0.33
2018-03-02T13:22:47.761Z,0.43
2018-03-02T13:23:50.985Z,0.52
2018-03-02T13:24:54.435Z,0.55
2018-03-02T13:25:58.352Z,0.43
2018-03-02T13:27:01.557Z,0.38
2018-03-02T13:28:04.813Z,0.32
2018-03-02T13:29:08.581Z,0.45
2018-03-02T13:30:12.540Z,0.62
2018-03-02T13:31:15.756Z,0.42
2018-03-02T13:32:18.998Z,0.41
2018-03-02T13:33:22.238Z,0.52
2018-03-02T13:34:25.474Z,0.56
2018-03-02T13:35:29.541Z,0.37
2018-03-02T13:36:32.740Z,-0.16
2018-03-02T13:37:36.023Z,0.16
2018-03-02T13:38:39.311Z,-0.11
2018-03-02T13:39:42.591Z,-0.13